createdAt,value
2018-07-01T00:02:35.164Z,101288.00
2018-07-01T00:05:46.062Z,101290.00
2018-07-01T00:08:57.030Z,101287.00
2018-07-01T00:12:08.324Z,101289.00
2018-07-01T00:15:19.132Z,101288.00
2018-07-01T00:18:29.439Z,101292.00
2018-07-01T00:21:39.971Z,101293.00
2018-07-01T00:24:50.565Z,101290.00
2018-07-01T00:28:01.268Z,101293.00
2018-07-01T00:31:11.903Z,101295.00
2018-07-01T00:34:22.871Z,101293.00
2018-07-01T00:37:33.695Z,101293.00
2018-07-01T00:40:44.476Z,101288.00
2018-07-01T00:43:55.366Z,101285.00
2018-07-01T00:47:05.647Z,101278.00
2018-07-01T00:50:16.653Z,101277.00
2018-07-01T00:53:27.038Z,101279.00
2018-07-01T00:56:37.464Z,101279.00
2018-07-01T00:59:47.900Z,101277.00
2018-07-01T01:02:58.773Z,101278.00
2018-07-01T01:06:10.602Z,101283.00
2018-07-01T01:09:21.583Z,101285.00
2018-07-01T01:12:32.017Z,101288.00
2018-07-01T01:15:42.906Z,101285.00
2018-07-01T01:18:53.525Z,101282.00
2018-07-01T01:22:04.069Z,101285.00
2018-07-01T01:25:14.709Z,101285.00
2018-07-01T01:28:25.042Z,101284.00
2018-07-01T01:31:35.431Z,101286.00
2018-07-01T01:34:45.938Z,101287.00
2018-07-01T01:37:57.424Z,101290.00
2018-07-01T01:41:13.369Z,101289.00
2018-07-01T01:44:28.716Z,101294.00
2018-07-01T01:47:53.339Z,101294.00
2018-07-01T01:51:12.165Z,101292.00
2018-07-01T01:54:33.513Z,101288.00
2018-07-01T01:57:50.430Z,101292.00
2018-07-01T02:01:07.195Z,101286.00
2018-07-01T02:04:25.604Z,101291.00
2018-07-01T02:08:10.428Z,101299.00
2018-07-01T02:11:21.115Z,101293.00
2018-07-01T02:14:38.567Z,101296.00
2018-07-01T02:17:51.080Z,101300.00
2018-07-01T02:21:01.589Z,101302.00
2018-07-01T02:24:20.276Z,101306.00
2018-07-01T02:27:31.103Z,101309.00
2018-07-01T02:30:41.980Z,101310.00
2018-07-01T02:33:54.792Z,101309.00
2018-07-01T02:37:05.624Z,101312.00
2018-07-01T02:40:20.873Z,101317.00
2018-07-01T02:43:31.940Z,101319.00
2018-07-01T02:46:42.920Z,101322.00
2018-07-01T02:49:53.955Z,101318.00
2018-07-01T02:53:04.833Z,101322.00
2018-07-01T02:56:15.775Z,101331.00
2018-07-01T02:59:26.388Z,101335.00
2018-07-01T03:02:37.509Z,101333.00
2018-07-01T03:05:47.944Z,101334.00
2018-07-01T03:08:58.422Z,101337.00
2018-07-01T03:12:09.365Z,101337.00
2018-07-01T03:15:20.126Z,101336.00
2018-07-01T03:18:31.138Z,101327.00
2018-07-01T03:21:42.112Z,101331.00
2018-07-01T03:24:52.529Z,101332.00
2018-07-01T03:28:03.220Z,101332.00
2018-07-01T03:31:14.084Z,101333.00
2018-07-01T03:34:24.569Z,101317.00
2018-07-01T03:37:35.873Z,101333.00
2018-07-01T03:40:46.312Z,101341.00
2018-07-01T03:43:57.381Z,101341.00
2018-07-01T03:47:07.925Z,101335.00
2018-07-01T03:50:18.871Z,101341.00
2018-07-01T03:53:29.376Z,101346.00
2018-07-01T03:56:40.024Z,101348.00
2018-07-01T03:59:50.728Z,101345.00
2018-07-01T04:03:01.273Z,101346.00
2018-07-01T04:06:11.837Z,101352.00
2018-07-01T04:09:22.555Z,101348.00
2018-07-01T04:12:33.888Z,101347.00
2018-07-01T04:15:45.984Z,101359.00
2018-07-01T04:18:56.845Z,101354.00
2018-07-01T04:22:08.569Z,101362.00
2018-07-01T04:25:19.384Z,101369.00
2018-07-01T04:28:34.280Z,101361.00
2018-07-01T04:31:45.069Z,101364.00
2018-07-01T04:34:55.819Z,101360.00
2018-07-01T04:38:06.692Z,101361.00
2018-07-01T04:41:17.297Z,101357.00
2018-07-01T04:44:27.934Z,101362.00
2018-07-01T04:47:38.794Z,101355.00
2018-07-01T04:50:49.263Z,101363.00
2018-07-01T04:54:01.833Z,101357.00
2018-07-01T04:57:12.867Z,101358.00
2018-07-01T05:00:23.848Z,101356.00
2018-07-01T05:03:34.192Z,101364.00
2018-07-01T05:06:44.647Z,101364.00
2018-07-01T05:09:55.588Z,101366.00
2018-07-01T05:13:06.535Z,101373.00
2018-07-01T05:16:18.633Z,101380.00
2018-07-01T05:19:30.683Z,101372.00
2018-07-01T05:22:41.274Z,101374.00
2018-07-01T05:25:52.751Z,101378.00
2018-07-01T05:29:03.688Z,101382.00
2018-07-01T05:32:14.628Z,101375.00
2018-07-01T05:35:25.381Z,101379.00
2018-07-01T05:38:36.225Z,101380.00
2018-07-01T05:41:46.940Z,101384.00
2018-07-01T05:44:57.920Z,101383.00
2018-07-01T05:48:08.255Z,101388.00
2018-07-01T05:51:19.108Z,101383.00
2018-07-01T05:54:31.073Z,101387.00
2018-07-01T05:57:42.605Z,101395.00
2018-07-01T06:00:53.969Z,101396.00
2018-07-01T06:04:04.545Z,101389.00
2018-07-01T06:07:15.602Z,101388.00
2018-07-01T06:10:26.071Z,101388.00
2018-07-01T06:13:36.602Z,101385.00
2018-07-01T06:16:48.118Z,101389.00
2018-07-01T06:19:59.052Z,101389.00
2018-07-01T06:23:10.172Z,101384.00
2018-07-01T06:26:20.811Z,101381.00
2018-07-01T06:29:33.046Z,101383.00
2018-07-01T06:32:43.473Z,101378.00
2018-07-01T06:35:54.216Z,101384.00
2018-07-01T06:39:07.294Z,101386.00
2018-07-01T06:42:18.137Z,101392.00
2018-07-01T06:45:29.031Z,101388.00
2018-07-01T06:48:39.828Z,101378.00
2018-07-01T06:51:51.533Z,101380.00
2018-07-01T06:55:02.056Z,101383.00
2018-07-01T06:58:13.535Z,101385.00
2018-07-01T07:01:25.454Z,101385.00
2018-07-01T07:04:35.903Z,101387.00
2018-07-01T07:07:46.610Z,101389.00
2018-07-01T07:10:57.604Z,101376.00
2018-07-01T07:14:09.052Z,101372.00
2018-07-01T07:17:19.932Z,101376.00
2018-07-01T07:20:30.975Z,101382.00
2018-07-01T07:23:41.361Z,101385.00
2018-07-01T07:26:51.863Z,101395.00
2018-07-01T07:30:02.453Z,101389.00
2018-07-01T07:33:12.979Z,101366.00
2018-07-01T07:36:24.140Z,101383.00
2018-07-01T07:39:36.447Z,101365.00
2018-07-01T07:42:47.772Z,101384.00
2018-07-01T07:45:58.395Z,101387.00
2018-07-01T07:49:09.676Z,101392.00
2018-07-01T07:52:21.291Z,101390.00
2018-07-01T07:55:31.983Z,101388.00
2018-07-01T07:58:42.611Z,101387.00
2018-07-01T08:01:53.072Z,101385.00
2018-07-01T08:05:03.951Z,101384.00
2018-07-01T08:08:14.376Z,101376.00
2018-07-01T08:11:25.156Z,101383.00
2018-07-01T08:14:37.019Z,101382.00
2018-07-01T08:17:52.061Z,101378.00
2018-07-01T08:21:02.896Z,101376.00
2018-07-01T08:24:14.156Z,101380.00
2018-07-01T08:27:25.693Z,101375.00
2018-07-01T08:30:36.695Z,101376.00
2018-07-01T08:33:47.910Z,101372.00
2018-07-01T08:36:59.843Z,101377.00
2018-07-01T08:40:12.050Z,101390.00
2018-07-01T08:43:22.444Z,101380.00
2018-07-01T08:46:33.122Z,101376.00
2018-07-01T08:49:43.867Z,101384.00
2018-07-01T08:52:54.824Z,101375.00
2018-07-01T08:56:05.766Z,101377.00
2018-07-01T08:59:16.548Z,101375.00
2018-07-01T09:02:28.200Z,101382.00
2018-07-01T09:05:40.414Z,101371.00
2018-07-01T09:08:51.666Z,101380.00
2018-07-01T09:12:02.161Z,101368.00
2018-07-01T09:15:12.540Z,101375.00
2018-07-01T09:18:24.195Z,101367.00
2018-07-01T09:21:36.156Z,101357.00
2018-07-01T09:24:47.092Z,101352.00
2018-07-01T09:27:57.576Z,101358.00
2018-07-01T09:31:08.312Z,101365.00
2018-07-01T09:34:21.215Z,101352.00
2018-07-01T09:37:32.093Z,101357.00
2018-07-01T09:40:42.975Z,101357.00
2018-07-01T09:43:53.675Z,101356.00
2018-07-01T09:47:04.784Z,101352.00
2018-07-01T09:50:15.502Z,101362.00
2018-07-01T09:53:25.963Z,101359.00
2018-07-01T09:56:36.565Z,101355.00
2018-07-01T09:59:47.114Z,101360.00
2018-07-01T10:02:57.594Z,101344.00
2018-07-01T10:06:08.145Z,101330.00
2018-07-01T10:09:19.602Z,101319.00
2018-07-01T10:12:30.306Z,101334.00
2018-07-01T10:15:41.045Z,101325.00
2018-07-01T10:18:52.987Z,101324.00
2018-07-01T10:22:03.880Z,101320.00
2018-07-01T10:25:14.575Z,101315.00
2018-07-01T10:28:26.292Z,101319.00
2018-07-01T10:31:38.430Z,101317.00
2018-07-01T10:34:49.396Z,101322.00
2018-07-01T10:38:00.108Z,101320.00
2018-07-01T10:41:11.144Z,101317.00
2018-07-01T10:44:22.773Z,101329.00
2018-07-01T10:47:33.704Z,101321.00
2018-07-01T10:50:46.592Z,101312.00
2018-07-01T10:53:57.857Z,101315.00
2018-07-01T10:57:08.698Z,101302.00
2018-07-01T11:00:20.470Z,101294.00
2018-07-01T11:03:31.532Z,101294.00
2018-07-01T11:06:42.597Z,101286.00
2018-07-01T11:09:53.803Z,101284.00
2018-07-01T11:13:04.632Z,101290.00
2018-07-01T11:16:19.854Z,101287.00
2018-07-01T11:19:30.641Z,101282.00
2018-07-01T11:22:48.095Z,101284.00
2018-07-01T11:25:59.805Z,101283.00
2018-07-01T11:29:10.561Z,101282.00
2018-07-01T11:32:21.311Z,101287.00
2018-07-01T11:35:33.038Z,101278.00
2018-07-01T11:38:43.476Z,101276.00
2018-07-01T11:41:53.969Z,101270.00
2018-07-01T11:45:04.672Z,101273.00
2018-07-01T11:48:15.444Z,101281.00
2018-07-01T11:51:26.466Z,101268.00
2018-07-01T11:54:37.362Z,101264.00
2018-07-01T11:57:48.895Z,101273.00
2018-07-01T12:00:59.791Z,101273.00
2018-07-01T12:04:10.678Z,101269.00
2018-07-01T12:07:21.277Z,101257.00
2018-07-01T12:10:32.132Z,101254.00
2018-07-01T12:13:42.889Z,101264.00
2018-07-01T12:16:53.856Z,101262.00
2018-07-01T12:20:04.753Z,101255.00
2018-07-01T12:23:15.202Z,101242.00
2018-07-01T12:26:26.095Z,101246.00
2018-07-01T12:29:36.728Z,101250.00
2018-07-01T12:32:48.020Z,101244.00
2018-07-01T12:35:58.693Z,101245.00
2018-07-01T12:39:12.288Z,101243.00
2018-07-01T12:42:22.813Z,101243.00
2018-07-01T12:45:33.532Z,101229.00
2018-07-01T12:48:44.620Z,101231.00
2018-07-01T12:51:55.580Z,101228.00
2018-07-01T12:55:06.477Z,101231.00
2018-07-01T12:58:17.476Z,101227.00
2018-07-01T13:01:28.247Z,101226.00
2018-07-01T13:04:39.088Z,101223.00
2018-07-01T13:07:50.238Z,101227.00
2018-07-01T13:11:00.820Z,101215.00
2018-07-01T13:14:11.451Z,101207.00
2018-07-01T13:17:22.208Z,101212.00
2018-07-01T13:20:33.035Z,101205.00
2018-07-01T13:23:43.876Z,101194.00
2018-07-01T13:26:54.705Z,101200.00
2018-07-01T13:30:05.800Z,101198.00
2018-07-01T13:33:16.507Z,101184.00
2018-07-01T13:36:27.510Z,101179.00
2018-07-01T13:39:38.384Z,101185.00
2018-07-01T13:42:49.448Z,101188.00
2018-07-01T13:46:00.836Z,101179.00
2018-07-01T13:49:12.237Z,101176.00
2018-07-01T13:52:22.886Z,101159.00
2018-07-01T13:55:33.773Z,101154.00
2018-07-01T13:58:44.587Z,101152.00
2018-07-01T14:01:56.357Z,101141.00
2018-07-01T14:05:07.038Z,101149.00
2018-07-01T14:08:17.701Z,101153.00
2018-07-01T14:11:28.529Z,101148.00
2018-07-01T14:14:39.291Z,101148.00
2018-07-01T14:17:50.180Z,101141.00
2018-07-01T14:21:00.845Z,101144.00
2018-07-01T14:24:11.649Z,101137.00
2018-07-01T14:27:22.937Z,101141.00
2018-07-01T14:30:33.852Z,101144.00
2018-07-01T14:33:44.758Z,101134.00
2018-07-01T14:36:55.607Z,101127.00
2018-07-01T14:40:06.577Z,101126.00
2018-07-01T14:43:17.345Z,101128.00
2018-07-01T14:46:29.181Z,101130.00
2018-07-01T14:49:39.680Z,101117.00
2018-07-01T14:52:50.654Z,101106.00
2018-07-01T14:56:01.367Z,101115.00
2018-07-01T14:59:12.148Z,101123.00
2018-07-01T15:02:22.961Z,101122.00
2018-07-01T15:05:34.083Z,101110.00
2018-07-01T15:08:44.938Z,101114.00
2018-07-01T15:11:57.390Z,101116.00
2018-07-01T15:15:08.609Z,101121.00
2018-07-01T15:18:20.360Z,101106.00
2018-07-01T15:21:31.133Z,101106.00
2018-07-01T15:24:42.201Z,101109.00
2018-07-01T15:27:53.053Z,101104.00
2018-07-01T15:31:04.460Z,101097.00
2018-07-01T15:34:15.192Z,101111.00
2018-07-01T15:37:26.040Z,101104.00
2018-07-01T15:40:37.528Z,101100.00
2018-07-01T15:43:48.019Z,101094.00
2018-07-01T15:47:00.209Z,101094.00
2018-07-01T15:50:10.979Z,101086.00
2018-07-01T15:53:21.940Z,101100.00
2018-07-01T15:56:32.807Z,101093.00
2018-07-01T15:59:43.855Z,101097.00
2018-07-01T16:02:54.672Z,101090.00
2018-07-01T16:06:05.657Z,101092.00
2018-07-01T16:09:16.591Z,101073.00
2018-07-01T16:12:27.448Z,101084.00
2018-07-01T16:15:38.149Z,101080.00
2018-07-01T16:18:48.937Z,101077.00
2018-07-01T16:22:01.789Z,101083.00
2018-07-01T16:25:17.816Z,101085.00
2018-07-01T16:28:40.040Z,101080.00
2018-07-01T16:31:50.915Z,101079.00
2018-07-01T16:35:02.361Z,101066.00
2018-07-01T16:38:12.886Z,101077.00
2018-07-01T16:41:23.674Z,101084.00
2018-07-01T16:44:34.215Z,101084.00
2018-07-01T16:47:45.136Z,101070.00
2018-07-01T16:50:55.972Z,101069.00
2018-07-01T16:54:06.618Z,101067.00
2018-07-01T16:57:17.439Z,101074.00
2018-07-01T17:00:28.412Z,101075.00
2018-07-01T17:03:39.419Z,101066.00
2018-07-01T17:06:50.652Z,101075.00
2018-07-01T17:10:02.875Z,101067.00
2018-07-01T17:13:13.971Z,101071.00
2018-07-01T17:16:24.792Z,101071.00
2018-07-01T17:19:35.644Z,101075.00
2018-07-01T17:22:46.513Z,101075.00
2018-07-01T17:25:57.621Z,101080.00
2018-07-01T17:29:08.591Z,101076.00
2018-07-01T17:32:24.554Z,101079.00
2018-07-01T17:35:39.967Z,101084.00
2018-07-01T17:38:50.801Z,101082.00
2018-07-01T17:42:01.772Z,101084.00
2018-07-01T17:45:12.562Z,101087.00
2018-07-01T17:48:23.832Z,101087.00
2018-07-01T17:51:34.641Z,101079.00
2018-07-01T17:54:45.613Z,101078.00
2018-07-01T17:57:56.389Z,101078.00
2018-07-01T18:01:06.863Z,101088.00
2018-07-01T18:04:17.784Z,101091.00
2018-07-01T18:07:28.737Z,101088.00
2018-07-01T18:10:39.569Z,101091.00
2018-07-01T18:13:50.475Z,101091.00
2018-07-01T18:17:01.459Z,101086.00
2018-07-01T18:20:11.765Z,101088.00
2018-07-01T18:23:53.703Z,101086.00
2018-07-01T18:26:33.765Z,101087.00
2018-07-01T18:29:44.510Z,101085.00
2018-07-01T18:32:55.317Z,101084.00
2018-07-01T18:36:07.328Z,101091.00
2018-07-01T18:39:18.292Z,101087.00
2018-07-01T18:42:29.118Z,101100.00
2018-07-01T18:45:40.283Z,101100.00
2018-07-01T18:48:51.383Z,101106.00
2018-07-01T18:52:02.297Z,101095.00
2018-07-01T18:55:12.994Z,101113.00
2018-07-01T18:58:23.520Z,101126.00
2018-07-01T19:01:34.724Z,101132.00
2018-07-01T19:04:45.622Z,101135.00
2018-07-01T19:07:56.512Z,101141.00
2018-07-01T19:11:07.597Z,101145.00
2018-07-01T19:14:18.763Z,101153.00
2018-07-01T19:17:30.029Z,101150.00
2018-07-01T19:20:41.044Z,101158.00
2018-07-01T19:23:51.654Z,101154.00
2018-07-01T19:27:02.542Z,101152.00
2018-07-01T19:30:14.107Z,101159.00
2018-07-01T19:33:24.772Z,101155.00
2018-07-01T19:36:36.067Z,101163.00
2018-07-01T19:39:46.831Z,101171.00
2018-07-01T19:43:02.442Z,101170.00
2018-07-01T19:46:13.163Z,101167.00
2018-07-01T19:49:24.185Z,101178.00
2018-07-01T19:52:34.719Z,101179.00
2018-07-01T19:55:45.581Z,101182.00
2018-07-01T19:58:56.537Z,101177.00
2018-07-01T20:02:07.361Z,101181.00
2018-07-01T20:05:20.311Z,101184.00
2018-07-01T20:08:31.076Z,101189.00
2018-07-01T20:11:42.796Z,101190.00
2018-07-01T20:14:54.420Z,101193.00
2018-07-01T20:18:06.433Z,101200.00
2018-07-01T20:21:20.411Z,101203.00
2018-07-01T20:24:32.874Z,101207.00
2018-07-01T20:27:43.866Z,101211.00
2018-07-01T20:30:55.847Z,101211.00
2018-07-01T20:34:08.717Z,101211.00
2018-07-01T20:37:19.715Z,101212.00
2018-07-01T20:40:30.543Z,101213.00
2018-07-01T20:43:41.267Z,101218.00
2018-07-01T20:46:51.965Z,101213.00
2018-07-01T20:50:02.573Z,101219.00
2018-07-01T20:53:13.998Z,101216.00
2018-07-01T20:56:24.387Z,101219.00
2018-07-01T20:59:35.208Z,101211.00
2018-07-01T21:02:47.780Z,101219.00
2018-07-01T21:06:00.379Z,101218.00
2018-07-01T21:09:11.868Z,101222.00
2018-07-01T21:12:23.748Z,101229.00
2018-07-01T21:15:36.693Z,101230.00
2018-07-01T21:18:49.206Z,101229.00
2018-07-01T21:22:06.472Z,101233.00
2018-07-01T21:25:17.981Z,101237.00
2018-07-01T21:28:28.240Z,101243.00
2018-07-01T21:31:38.728Z,101241.00
2018-07-01T21:34:49.737Z,101249.00
2018-07-01T21:38:00.447Z,101250.00
2018-07-01T21:41:11.211Z,101250.00
2018-07-01T21:44:21.706Z,101253.00
2018-07-01T21:47:32.225Z,101251.00
2018-07-01T21:50:46.980Z,101250.00
2018-07-01T21:53:57.328Z,101251.00
2018-07-01T21:57:07.824Z,101250.00
2018-07-01T22:00:23.680Z,101246.00
2018-07-01T22:03:34.802Z,101243.00
2018-07-01T22:06:51.015Z,101243.00
2018-07-01T22:10:01.965Z,101241.00
2018-07-01T22:14:32.877Z,101249.00
2018-07-01T22:17:43.900Z,101255.00
2018-07-01T22:20:54.452Z,101258.00
2018-07-01T22:24:04.852Z,101260.00
2018-07-01T22:27:15.323Z,101271.00
2018-07-01T22:30:25.701Z,101267.00
2018-07-01T22:33:37.349Z,101265.00
2018-07-01T22:36:48.402Z,101268.00
2018-07-01T22:40:00.328Z,101261.00
2018-07-01T22:43:11.434Z,101263.00
2018-07-01T22:46:22.420Z,101257.00
2018-07-01T22:49:32.831Z,101259.00
2018-07-01T22:52:44.224Z,101263.00
2018-07-01T22:55:54.800Z,101267.00
2018-07-01T22:59:05.291Z,101258.00
2018-07-01T23:03:04.148Z,101258.00
2018-07-01T23:06:14.734Z,101247.00
2018-07-01T23:09:25.441Z,101262.00
2018-07-01T23:12:36.110Z,101261.00
2018-07-01T23:15:47.396Z,101260.00
2018-07-01T23:18:57.946Z,101264.00
2018-07-01T23:22:09.582Z,101267.00
2018-07-01T23:25:22.689Z,101267.00
2018-07-01T23:28:33.462Z,101272.00
2018-07-01T23:31:44.279Z,101262.00
2018-07-01T23:34:55.516Z,101262.00
2018-07-01T23:38:06.134Z,101261.00
2018-07-01T23:41:16.999Z,101265.00
2018-07-01T23:44:27.491Z,101258.00
2018-07-01T23:47:37.935Z,101257.00
2018-07-01T23:50:48.807Z,101258.00
2018-07-01T23:53:59.128Z,101250.00
2018-07-01T23:57:09.718Z,101246.00
